Time;durP1;ratioP1;P1;durP2;ratioP2;P2;SDS_P1;SDS_P2;PMS_P1;PMS_P2;Temp;Humidity;BMP_temperature;BMP_pressure;BME280_temperature;BME280_humidity;BME280_pressure;Samples;Min_cycle;Max_cycle;Signal;HPM_P1;HPM_P2
2023/05/10 00:02:07;;;;;;;24.83;12.68;;;13.60;99.90;;;;;;5013918;28;20050;-86
2023/05/10 00:04:32;;;;;;;22.65;11.43;;;13.50;99.90;;;;;;5014214;28;20048;-86
2023/05/10 00:06:58;;;;;;;18.63;9.98;;;13.50;99.90;;;;;;5013015;28;20125;-86
2023/05/10 00:09:24;;;;;;;18.45;9.95;;;13.40;99.90;;;;;;5024717;28;20109;-85
2023/05/10 00:11:49;;;;;;;19.15;9.93;;;13.60;99.90;;;;;;5021811;28;20510;-86
2023/05/10 00:14:15;;;;;;;18.35;10.55;;;13.30;99.90;;;;;;5015133;28;20357;-86
2023/05/10 00:16:41;;;;;;;17.45;9.55;;;13.20;99.90;;;;;;5025292;28;20034;-86
2023/05/10 00:19:06;;;;;;;18.55;10.35;;;13.50;99.90;;;;;;5017414;28;20060;-86
2023/05/10 00:21:33;;;;;;;19.92;11.20;;;13.20;99.90;;;;;;5015624;28;20041;-86
2023/05/10 00:23:59;;;;;;;20.48;11.70;;;13.00;99.90;;;;;;5014204;28;20404;-86
2023/05/10 00:26:25;;;;;;;20.13;11.52;;;13.00;99.90;;;;;;5014428;28;20077;-85
2023/05/10 00:28:51;;;;;;;19.00;10.90;;;13.60;99.90;;;;;;5013938;28;20139;-86
2023/05/10 00:31:16;;;;;;;19.55;10.32;;;13.60;99.90;;;;;;5014469;28;20112;-86
2023/05/10 00:33:45;;;;;;;18.30;10.23;;;13.50;99.90;;;;;;5013974;28;20049;-86
2023/05/10 00:36:10;;;;;;;17.10;9.80;;;12.80;99.90;;;;;;5012874;28;20034;-87
2023/05/10 00:38:36;;;;;;;19.85;10.75;;;12.70;99.90;;;;;;4997371;28;20049;-86
2023/05/10 00:41:02;;;;;;;18.52;10.68;;;12.60;99.90;;;;;;5014119;28;20121;-86
2023/05/10 00:43:28;;;;;;;24.30;10.95;;;12.70;99.90;;;;;;5013582;28;20042;-86
2023/05/10 00:45:54;;;;;;;20.42;11.63;;;12.60;99.90;;;;;;5013770;28;20038;-86
2023/05/10 00:48:19;;;;;;;19.98;10.88;;;12.60;99.90;;;;;;5012409;28;20037;-86
2023/05/10 00:50:45;;;;;;;21.75;10.20;;;12.90;99.90;;;;;;5013503;28;20095;-86
2023/05/10 00:53:11;;;;;;;18.80;9.88;;;13.40;99.90;;;;;;5014662;28;20478;-85
2023/05/10 00:55:37;;;;;;;17.70;9.77;;;13.60;99.90;;;;;;5012400;28;20041;-85
2023/05/10 00:58:04;;;;;;;19.52;10.07;;;13.20;99.90;;;;;;5014609;28;20039;-85
2023/05/10 01:00:30;;;;;;;20.48;10.80;;;12.50;99.90;;;;;;5012324;28;20485;-86
2023/05/10 01:02:55;;;;;;;19.92;10.85;;;12.90;99.90;;;;;;5013781;28;20049;-86
2023/05/10 01:05:21;;;;;;;20.50;10.73;;;12.50;99.90;;;;;;5014088;28;20057;-85
2023/05/10 01:07:47;;;;;;;21.60;10.27;;;13.60;99.90;;;;;;5018308;28;20053;-85
2023/05/10 01:10:13;;;;;;;18.50;10.00;;;13.50;99.90;;;;;;5031965;28;20187;-85
2023/05/10 01:12:42;;;;;;;21.20;10.70;;;12.50;99.90;;;;;;5053891;28;20041;-85
2023/05/10 01:15:10;;;;;;;20.25;11.15;;;13.20;99.90;;;;;;5035605;28;20048;-85
2023/05/10 01:17:39;;;;;;;21.38;11.10;;;12.40;99.90;;;;;;5053679;28;20049;-85
2023/05/10 01:20:07;;;;;;;22.60;10.93;;;13.40;99.90;;;;;;5035993;28;20068;-85
2023/05/10 01:23:04;;;;;;;24.48;12.32;;;12.40;99.90;;;;;;5053094;28;20122;-85
2023/05/10 01:26:00;;;;;;;24.70;12.00;;;12.40;99.90;;;;;;5035597;28;20060;-86
2023/05/10 01:28:50;;;;;;;24.88;12.30;;;12.40;99.90;;;;;;5035654;28;20106;-85
2023/05/10 01:31:30;;;;;;;24.38;11.43;;;12.40;99.90;;;;;;5052445;28;20098;-85
2023/05/10 01:34:01;;;;;;;21.13;10.82;;;12.40;99.90;;;;;;5035677;28;20041;-85
2023/05/10 01:36:57;;;;;;;22.52;11.75;;;12.40;99.90;;;;;;5052202;28;20059;-85
2023/05/10 01:39:36;;;;;;;26.35;11.48;;;12.80;99.90;;;;;;5052107;28;20048;-85
2023/05/10 01:42:05;;;;;;;26.15;12.63;;;12.40;99.90;;;;;;5054692;28;20037;-84
2023/05/10 01:44:37;;;;;;;25.00;12.15;;;12.40;99.90;;;;;;5036335;28;20371;-85
2023/05/10 01:47:17;;;;;;;20.98;10.93;;;13.10;99.90;;;;;;5040412;28;20548;-85
2023/05/10 01:49:54;;;;;;;25.75;11.75;;;12.40;99.90;;;;;;5034054;28;20038;-85
2023/05/10 01:52:37;;;;;;;21.48;11.38;;;12.40;99.90;;;;;;5048039;28;20036;-85
2023/05/10 01:55:07;;;;;;;22.02;10.93;;;12.60;99.90;;;;;;5037004;28;20041;-85
2023/05/10 01:57:39;;;;;;;23.92;11.27;;;12.30;99.90;;;;;;5036313;28;20128;-85
2023/05/10 02:00:07;;;;;;;21.33;10.00;;;12.30;99.90;;;;;;5016866;28;20099;-85
2023/05/10 02:02:36;;;;;;;21.63;10.45;;;12.30;99.90;;;;;;5033060;28;20037;-85
2023/05/10 02:05:05;;;;;;;22.52;10.77;;;12.30;99.90;;;;;;5014571;28;20136;-85
2023/05/10 02:07:34;;;;;;;23.27;10.50;;;12.30;99.90;;;;;;5032896;28;20049;-85
2023/05/10 02:10:01;;;;;;;22.05;9.60;;;12.50;99.90;;;;;;5032670;28;20125;-85
2023/05/10 02:12:34;;;;;;;21.48;10.35;;;12.30;99.90;;;;;;5032272;28;20465;-85
2023/05/10 02:15:03;;;;;;;19.33;9.85;;;12.30;99.90;;;;;;5033044;28;20059;-85
2023/05/10 02:17:31;;;;;;;20.83;10.50;;;12.30;99.90;;;;;;5031339;28;20052;-84
2023/05/10 02:19:58;;;;;;;19.55;9.77;;;12.30;99.90;;;;;;5032428;28;20049;-85
2023/05/10 02:22:26;;;;;;;22.20;10.00;;;12.60;99.90;;;;;;5014880;28;20049;-85
2023/05/10 02:24:53;;;;;;;21.65;10.02;;;12.30;99.90;;;;;;5032805;28;20033;-84
2023/05/10 02:27:23;;;;;;;22.45;9.90;;;12.20;99.90;;;;;;5014181;28;20045;-85
2023/05/10 02:29:50;;;;;;;22.13;9.80;;;12.20;99.90;;;;;;5033079;28;20041;-85
2023/05/10 02:32:17;;;;;;;20.55;9.38;;;13.10;99.90;;;;;;5018576;28;20041;-85
2023/05/10 02:34:45;;;;;;;23.25;9.88;;;13.30;99.90;;;;;;5018627;28;20053;-85
2023/05/10 02:37:14;;;;;;;22.02;10.07;;;12.20;99.90;;;;;;5018968;28;20049;-85
2023/05/10 02:39:43;;;;;;;19.90;9.25;;;12.20;99.90;;;;;;5036197;28;20481;-85
2023/05/10 02:42:16;;;;;;;18.63;8.90;;;12.40;99.90;;;;;;5018536;28;20441;-85
2023/05/10 02:45:01;;;;;;;20.33;9.50;;;13.40;99.90;;;;;;5019149;28;20049;-85
2023/05/10 02:47:28;;;;;;;19.38;9.65;;;12.60;99.90;;;;;;5017876;28;20509;-85
2023/05/10 02:49:54;;;;;;;18.30;9.38;;;12.80;99.90;;;;;;5036915;28;20048;-85
2023/05/10 02:53:13;;;;;;;20.17;9.35;;;12.10;99.90;;;;;;5035978;28;20041;-85
2023/05/10 02:55:42;;;;;;;18.70;9.10;;;11.90;99.90;;;;;;4939058;29;20054;-85
2023/05/10 02:58:08;;;;;;;19.67;9.60;;;13.00;99.90;;;;;;5030533;28;20405;-86
2023/05/10 03:00:35;;;;;;;19.88;9.93;;;12.10;99.90;;;;;;5036124;28;20045;-85
2023/05/10 03:03:01;;;;;;;20.58;9.80;;;12.70;99.90;;;;;;5018023;28;20048;-85
2023/05/10 03:05:30;;;;;;;19.10;9.52;;;12.10;99.90;;;;;;5019992;28;20400;-86
2023/05/10 03:07:56;;;;;;;20.55;9.90;;;12.10;99.90;;;;;;5058113;28;20063;-85
2023/05/10 03:10:29;;;;;;;23.50;9.95;;;12.10;99.90;;;;;;5018598;28;20042;-85
2023/05/10 03:13:39;;;;;;;22.52;9.63;;;12.10;99.90;;;;;;5023372;28;20136;-85
2023/05/10 03:16:09;;;;;;;20.55;9.38;;;12.10;99.90;;;;;;5030365;28;20033;-86
2023/05/10 03:19:15;;;;;;;20.42;9.95;;;12.10;99.90;;;;;;5019091;28;20045;-85
2023/05/10 03:21:47;;;;;;;19.45;9.40;;;12.00;99.90;;;;;;4955783;28;20401;-86
2023/05/10 03:24:15;;;;;;;20.58;9.68;;;12.00;99.90;;;;;;5036124;28;20132;-85
2023/05/10 03:26:43;;;;;;;20.35;9.57;;;13.10;99.90;;;;;;5089075;22;20057;-85
2023/05/10 03:29:11;;;;;;;22.63;10.15;;;12.00;99.90;;;;;;4997603;28;20085;-85
2023/05/10 03:31:38;;;;;;;21.25;10.02;;;12.90;99.90;;;;;;5016225;28;20068;-85
2023/05/10 03:34:04;;;;;;;22.73;10.00;;;12.70;99.90;;;;;;5016201;28;20092;-85
2023/05/10 03:36:31;;;;;;;21.10;9.32;;;12.80;99.90;;;;;;4997740;28;20049;-85
2023/05/10 03:38:57;;;;;;;21.88;9.68;;;12.00;99.90;;;;;;5016403;28;20041;-85
2023/05/10 03:41:22;;;;;;;19.08;9.15;;;13.10;99.90;;;;;;4997999;28;20045;-86
2023/05/10 03:43:48;;;;;;;20.42;8.73;;;12.50;99.90;;;;;;5015509;28;20342;-85
2023/05/10 03:46:14;;;;;;;20.95;9.65;;;12.30;99.90;;;;;;4997644;28;20037;-85
2023/05/10 03:48:40;;;;;;;22.58;9.23;;;12.90;99.90;;;;;;5015816;28;20121;-85
2023/05/10 03:51:05;;;;;;;20.40;9.15;;;12.20;99.90;;;;;;4996983;28;20564;-85
2023/05/10 03:53:31;;;;;;;20.50;9.48;;;12.00;99.90;;;;;;5015952;28;20057;-85
2023/05/10 03:55:57;;;;;;;20.67;9.57;;;12.00;99.90;;;;;;5015742;28;20100;-85
2023/05/10 03:58:22;;;;;;;18.50;8.60;;;13.20;99.90;;;;;;4996858;28;20045;-86
2023/05/10 04:00:48;;;;;;;20.52;9.45;;;12.00;99.90;;;;;;5015495;28;20485;-85
2023/05/10 04:03:14;;;;;;;20.60;9.52;;;12.90;99.90;;;;;;5014778;28;20481;-86
2023/05/10 04:05:39;;;;;;;20.35;9.73;;;12.00;99.90;;;;;;5014080;28;20038;-85
2023/05/10 04:08:06;;;;;;;20.98;10.30;;;12.10;99.90;;;;;;4997427;28;20526;-85
2023/05/10 04:10:31;;;;;;;19.48;9.40;;;12.10;99.90;;;;;;5015190;28;20052;-85
2023/05/10 04:12:57;;;;;;;19.60;9.73;;;12.10;99.90;;;;;;5014734;28;20050;-85
2023/05/10 04:15:23;;;;;;;22.02;10.68;;;13.00;99.90;;;;;;4997713;28;20124;-85
2023/05/10 04:17:50;;;;;;;22.73;10.30;;;12.70;99.90;;;;;;4997471;28;20468;-85
2023/05/10 04:20:16;;;;;;;19.85;9.95;;;12.00;99.90;;;;;;5014204;28;20081;-84
2023/05/10 04:22:41;;;;;;;19.58;9.40;;;12.10;99.90;;;;;;4997633;28;20077;-85
2023/05/10 04:25:07;;;;;;;21.15;9.80;;;13.00;99.90;;;;;;4996476;28;20504;-85
2023/05/10 04:27:33;;;;;;;17.20;8.57;;;12.10;99.90;;;;;;4993659;28;20149;-85
2023/05/10 04:29:58;;;;;;;20.08;9.57;;;12.90;99.90;;;;;;4994070;28;20511;-85
2023/05/10 04:32:24;;;;;;;19.85;9.90;;;12.50;99.90;;;;;;4994648;28;20058;-85
2023/05/10 04:34:53;;;;;;;20.85;9.15;;;12.50;99.90;;;;;;5001127;28;20062;-85
2023/05/10 04:37:19;;;;;;;17.30;9.10;;;12.60;99.90;;;;;;5016996;28;20052;-85
2023/05/10 04:39:45;;;;;;;18.60;9.40;;;12.00;99.90;;;;;;5013319;28;20479;-84
2023/05/10 04:42:11;;;;;;;20.55;10.07;;;13.00;99.90;;;;;;5021373;28;20072;-85
2023/05/10 04:44:37;;;;;;;18.27;9.63;;;12.00;99.90;;;;;;5024904;28;20117;-85
2023/05/10 04:47:03;;;;;;;21.02;10.00;;;12.00;99.90;;;;;;5015023;28;20180;-86
2023/05/10 04:49:29;;;;;;;17.48;9.15;;;12.00;99.90;;;;;;5056050;23;20084;-85
2023/05/10 04:51:58;;;;;;;19.42;9.73;;;11.80;99.90;;;;;;5054442;28;20144;-85
2023/05/10 04:54:29;;;;;;;19.50;10.15;;;12.00;99.90;;;;;;5052528;28;20045;-86
2023/05/10 04:57:01;;;;;;;20.75;10.32;;;13.20;99.90;;;;;;5072935;28;20477;-86
2023/05/10 04:59:26;;;;;;;21.30;10.05;;;13.00;99.90;;;;;;5056929;28;20477;-85
2023/05/10 05:02:01;;;;;;;22.58;10.27;;;11.90;99.90;;;;;;5055749;28;20041;-85
2023/05/10 05:04:27;;;;;;;21.17;11.10;;;12.70;99.90;;;;;;5036599;28;20051;-85
2023/05/10 05:06:59;;;;;;;19.88;10.10;;;13.30;99.90;;;;;;5054592;28;20037;-86
2023/05/10 05:09:27;;;;;;;22.00;10.68;;;13.40;99.90;;;;;;5035859;28;20055;-86
2023/05/10 05:11:53;;;;;;;20.60;10.30;;;12.20;99.90;;;;;;5054062;28;20091;-85
2023/05/10 05:14:20;;;;;;;20.75;10.15;;;12.00;99.90;;;;;;5035425;28;20065;-86
2023/05/10 05:17:01;;;;;;;23.55;11.45;;;12.70;99.90;;;;;;5035990;28;20106;-85
2023/05/10 05:19:31;;;;;;;22.60;10.98;;;11.90;99.90;;;;;;5032277;28;20132;-85
2023/05/10 05:22:09;;;;;;;22.83;10.98;;;13.30;99.90;;;;;;5035100;28;20041;-87
2023/05/10 05:24:40;;;;;;;20.27;9.63;;;13.30;99.90;;;;;;5052822;28;20053;-85
2023/05/10 05:27:06;;;;;;;22.77;10.43;;;12.60;99.90;;;;;;5035012;28;20055;-82
2023/05/10 05:29:32;;;;;;;20.38;10.52;;;12.80;99.90;;;;;;5033033;28;20037;-81
2023/05/10 05:31:57;;;;;;;22.83;9.70;;;12.00;99.90;;;;;;5015689;28;20049;-82
2023/05/10 05:34:24;;;;;;;23.02;10.40;;;13.20;99.90;;;;;;5032788;28;20049;-82
2023/05/10 05:36:49;;;;;;;21.00;9.65;;;12.00;99.90;;;;;;5014989;28;20050;-81
2023/05/10 05:39:15;;;;;;;18.02;8.52;;;12.00;99.90;;;;;;5033284;28;20056;-82
2023/05/10 05:41:41;;;;;;;22.70;9.43;;;12.00;99.90;;;;;;5015721;28;20413;-81
2023/05/10 05:44:06;;;;;;;21.65;8.98;;;12.00;99.90;;;;;;5014787;28;20045;-81
2023/05/10 05:46:32;;;;;;;19.88;8.95;;;12.00;99.90;;;;;;5015506;28;20037;-82
2023/05/10 05:48:57;;;;;;;19.30;8.88;;;12.60;99.90;;;;;;5033128;28;20128;-81
2023/05/10 05:51:23;;;;;;;20.92;8.20;;;12.70;99.90;;;;;;5014742;28;20049;-82
2023/05/10 05:53:48;;;;;;;19.13;8.75;;;12.00;99.90;;;;;;5033546;28;20465;-83
2023/05/10 05:56:14;;;;;;;20.67;9.13;;;11.90;99.90;;;;;;5015026;28;20396;-83
2023/05/10 05:58:40;;;;;;;18.50;8.32;;;12.00;99.90;;;;;;5014994;28;20037;-85
2023/05/10 06:01:05;;;;;;;18.83;8.70;;;13.00;99.90;;;;;;5033146;28;20084;-84
2023/05/10 06:03:31;;;;;;;20.75;8.55;;;12.90;99.90;;;;;;5035480;28;20042;-84
2023/05/10 06:05:56;;;;;;;19.05;8.52;;;13.20;99.90;;;;;;5036348;28;20100;-84
2023/05/10 06:08:22;;;;;;;18.40;8.93;;;12.00;99.90;;;;;;5015855;28;20054;-82
2023/05/10 06:10:48;;;;;;;21.85;9.27;;;12.20;99.90;;;;;;5034204;28;20105;-82
2023/05/10 06:13:13;;;;;;;20.33;8.43;;;12.10;99.90;;;;;;5015592;28;20532;-82
2023/05/10 06:15:39;;;;;;;18.73;8.35;;;12.10;99.90;;;;;;5032952;28;20054;-82
2023/05/10 06:18:05;;;;;;;17.30;8.18;;;13.20;99.90;;;;;;5032069;28;20041;-82
2023/05/10 06:20:31;;;;;;;19.23;8.57;;;12.10;99.90;;;;;;5032658;28;20056;-82
2023/05/10 06:22:57;;;;;;;18.35;8.02;;;12.10;99.90;;;;;;5032923;28;20037;-82
2023/05/10 06:25:23;;;;;;;18.45;7.88;;;12.10;99.90;;;;;;5014278;28;20477;-82
2023/05/10 06:27:49;;;;;;;19.67;8.27;;;12.20;99.90;;;;;;5014812;28;20052;-82
2023/05/10 06:30:15;;;;;;;16.20;7.55;;;12.50;99.90;;;;;;5015102;28;20393;-82
2023/05/10 06:32:41;;;;;;;17.23;7.82;;;12.30;99.90;;;;;;5014214;28;20044;-82
2023/05/10 06:35:07;;;;;;;17.77;8.13;;;12.30;99.90;;;;;;5015125;28;20046;-82
2023/05/10 06:37:34;;;;;;;20.08;7.35;;;12.40;99.90;;;;;;5014925;28;20056;-82
2023/05/10 06:40:00;;;;;;;17.13;6.95;;;12.40;99.90;;;;;;5031626;28;20103;-81
2023/05/10 06:42:26;;;;;;;21.25;7.78;;;12.40;99.90;;;;;;5032293;28;20052;-83
2023/05/10 06:44:52;;;;;;;16.65;8.10;;;12.50;99.90;;;;;;5015203;28;20057;-81
2023/05/10 06:47:18;;;;;;;17.63;7.95;;;13.40;99.90;;;;;;5031476;28;20038;-82
2023/05/10 06:49:44;;;;;;;18.30;7.93;;;12.40;99.90;;;;;;5014547;28;20084;-82
2023/05/10 06:52:15;;;;;;;16.42;7.32;;;13.60;99.90;;;;;;5014348;28;20053;-81
2023/05/10 06:54:47;;;;;;;19.50;7.32;;;12.30;99.90;;;;;;5014310;28;20111;-81
2023/05/10 06:57:16;;;;;;;15.98;6.82;;;12.40;99.90;;;;;;5014804;28;20392;-81
2023/05/10 06:59:51;;;;;;;17.65;6.50;;;13.50;99.90;;;;;;5033108;28;20400;-80
2023/05/10 07:02:16;;;;;;;16.13;6.68;;;12.50;99.90;;;;;;5034266;28;20156;-80
2023/05/10 07:04:44;;;;;;;15.07;7.38;;;12.50;99.90;;;;;;5024703;28;20532;-81
2023/05/10 07:07:09;;;;;;;16.55;7.15;;;12.50;99.90;;;;;;5050905;28;20049;-80
2023/05/10 07:09:35;;;;;;;15.90;6.95;;;12.50;99.90;;;;;;5032662;28;20040;-80
2023/05/10 07:12:01;;;;;;;17.05;7.20;;;12.50;99.90;;;;;;5051716;28;20055;-79
2023/05/10 07:14:27;;;;;;;18.60;7.47;;;12.50;99.90;;;;;;5016418;28;20052;-79
2023/05/10 07:16:53;;;;;;;15.45;7.07;;;12.50;99.90;;;;;;5033373;28;20037;-79
2023/05/10 07:19:19;;;;;;;16.60;7.70;;;12.60;99.90;;;;;;5035459;28;20038;-79
2023/05/10 07:21:45;;;;;;;16.00;6.60;;;13.50;99.90;;;;;;5034211;28;20115;-79
2023/05/10 07:24:11;;;;;;;17.35;6.05;;;12.90;99.90;;;;;;5031308;28;20120;-79
2023/05/10 07:26:36;;;;;;;16.35;6.88;;;13.80;99.90;;;;;;5037314;28;20060;-79
2023/05/10 07:29:02;;;;;;;14.23;6.65;;;13.60;99.90;;;;;;5054551;28;20037;-79
2023/05/10 07:31:28;;;;;;;17.17;6.88;;;12.80;99.90;;;;;;5054608;28;20070;-78
2023/05/10 07:33:53;;;;;;;16.33;6.60;;;13.10;99.90;;;;;;5026136;28;20060;-78
2023/05/10 07:36:19;;;;;;;14.40;6.65;;;13.40;99.90;;;;;;5020688;28;20040;-80
2023/05/10 07:38:45;;;;;;;15.07;7.10;;;12.90;99.90;;;;;;5041294;28;20072;-82
2023/05/10 07:43:40;;;;;;;13.77;5.90;;;13.00;99.90;;;;;;5335136;22;20050;-81
2023/05/10 07:46:06;;;;;;;13.82;6.25;;;14.10;99.90;;;;;;4996885;28;20120;-80
2023/05/10 07:48:32;;;;;;;13.90;6.30;;;12.90;99.90;;;;;;5015096;28;20445;-80
2023/05/10 07:50:57;;;;;;;14.32;6.07;;;13.30;99.90;;;;;;5013946;28;20050;-80
2023/05/10 07:53:23;;;;;;;14.02;6.45;;;13.30;99.90;;;;;;5005948;28;20101;-81
2023/05/10 07:55:58;;;;;;;13.43;5.82;;;13.80;99.90;;;;;;5013625;28;20038;-80
2023/05/10 07:58:24;;;;;;;15.18;6.30;;;13.40;99.90;;;;;;4996451;28;20064;-81
2023/05/10 08:00:50;;;;;;;15.93;6.20;;;12.90;99.90;;;;;;5015080;28;20045;-81
2023/05/10 08:03:15;;;;;;;14.40;5.70;;;13.00;99.90;;;;;;5013140;28;20045;-81
2023/05/10 08:05:41;;;;;;;13.95;6.10;;;12.90;99.90;;;;;;5014281;28;20069;-80
2023/05/10 08:08:07;;;;;;;13.98;6.45;;;12.90;99.90;;;;;;4996901;28;20779;-80
2023/05/10 08:10:33;;;;;;;13.27;5.97;;;14.10;99.90;;;;;;5014085;28;20121;-80
2023/05/10 08:12:58;;;;;;;16.13;6.50;;;13.10;99.90;;;;;;4996876;28;20084;-81
2023/05/10 08:15:25;;;;;;;14.63;6.15;;;13.20;99.90;;;;;;5014875;28;20038;-80
2023/05/10 08:17:52;;;;;;;13.77;5.68;;;13.40;99.90;;;;;;4999622;28;20042;-80
2023/05/10 08:20:18;;;;;;;13.98;5.50;;;13.30;99.90;;;;;;4977674;28;20038;-80
2023/05/10 08:22:45;;;;;;;11.80;5.47;;;13.30;99.90;;;;;;4994954;28;20046;-81
2023/05/10 08:25:11;;;;;;;14.63;5.70;;;13.30;99.90;;;;;;5013971;28;20454;-80
2023/05/10 08:27:37;;;;;;;13.48;5.70;;;13.90;99.90;;;;;;5034405;28;20077;-80
2023/05/10 08:30:02;;;;;;;15.75;5.80;;;14.50;99.90;;;;;;4998655;28;20136;-81
2023/05/10 08:32:29;;;;;;;12.35;5.57;;;13.20;99.90;;;;;;5013695;28;20046;-80
2023/05/10 08:34:55;;;;;;;12.82;5.75;;;13.30;99.90;;;;;;4996389;28;20371;-81
2023/05/10 08:37:22;;;;;;;14.48;5.85;;;13.30;99.90;;;;;;4996451;28;20073;-81
2023/05/10 08:39:48;;;;;;;12.32;5.05;;;13.20;99.90;;;;;;4995904;28;20046;-81
2023/05/10 08:42:22;;;;;;;14.05;5.13;;;13.10;99.90;;;;;;5031824;28;20060;-82
2023/05/10 08:44:49;;;;;;;12.52;4.75;;;13.20;99.90;;;;;;5019637;28;20045;-82
2023/05/10 08:47:17;;;;;;;12.23;5.28;;;13.20;99.90;;;;;;5013213;28;20042;-82
2023/05/10 08:49:47;;;;;;;12.10;5.35;;;13.80;99.90;;;;;;4996011;28;20057;-82
2023/05/10 08:52:16;;;;;;;12.13;5.22;;;13.10;99.90;;;;;;5013439;28;20056;-81
2023/05/10 08:54:42;;;;;;;12.02;5.25;;;14.10;99.90;;;;;;5001397;28;20053;-81
2023/05/10 08:57:08;;;;;;;16.85;9.80;;;13.10;99.90;;;;;;5033610;28;20128;-81
2023/05/10 08:59:34;;;;;;;15.15;7.47;;;13.10;99.90;;;;;;5021097;28;20121;-81
2023/05/10 09:02:00;;;;;;;13.77;7.07;;;13.10;99.90;;;;;;5014144;28;20042;-81
2023/05/10 09:04:26;;;;;;;12.27;5.18;;;13.80;99.90;;;;;;4998156;28;20041;-81
2023/05/10 09:06:52;;;;;;;12.77;5.15;;;13.70;99.90;;;;;;5013832;28;20128;-81
2023/05/10 09:09:19;;;;;;;29.38;20.58;;;13.30;99.90;;;;;;5013888;28;20037;-80
2023/05/10 09:11:45;;;;;;;40.90;26.92;;;13.50;99.90;;;;;;4997746;28;20401;-81
2023/05/10 09:14:12;;;;;;;11.70;5.10;;;13.50;99.90;;;;;;4995326;28;20453;-81
2023/05/10 09:16:39;;;;;;;21.38;13.30;;;14.10;99.90;;;;;;4996917;28;20370;-81
2023/05/10 09:19:06;;;;;;;13.02;5.55;;;14.20;99.90;;;;;;5013319;28;20112;-81
2023/05/10 09:21:33;;;;;;;10.57;4.53;;;13.50;99.90;;;;;;4995304;28;20140;-83
2023/05/10 09:24:06;;;;;;;12.30;5.53;;;13.40;99.90;;;;;;5013670;28;20038;-81
2023/05/10 09:26:33;;;;;;;74.68;47.95;;;13.60;99.90;;;;;;5013452;28;20446;-82
2023/05/10 09:29:00;;;;;;;35.58;31.88;;;13.80;99.90;;;;;;4995179;28;20038;-81
2023/05/10 09:31:55;;;;;;;16.83;11.52;;;13.40;99.90;;;;;;4995772;28;20157;-80
2023/05/10 09:34:32;;;;;;;10.93;4.90;;;13.40;99.90;;;;;;5013322;28;20050;-80
2023/05/10 09:37:04;;;;;;;10.98;4.65;;;13.50;99.90;;;;;;5013504;28;20445;-80
2023/05/10 09:39:38;;;;;;;10.98;4.50;;;14.40;99.90;;;;;;4998296;28;20091;-80
2023/05/10 09:42:09;;;;;;;12.65;4.88;;;13.90;99.90;;;;;;4995706;28;20041;-80
2023/05/10 09:44:36;;;;;;;12.05;5.30;;;13.30;99.90;;;;;;4994344;28;20563;-80
2023/05/10 09:47:02;;;;;;;11.20;5.18;;;14.40;99.90;;;;;;4994681;28;20049;-80
2023/05/10 09:49:28;;;;;;;12.43;6.60;;;13.40;99.90;;;;;;4994475;28;20396;-80
2023/05/10 09:52:04;;;;;;;12.48;5.40;;;14.00;99.90;;;;;;4995416;28;20572;-80
2023/05/10 09:54:30;;;;;;;11.63;5.50;;;13.60;99.90;;;;;;4995114;28;20049;-79
2023/05/10 09:56:56;;;;;;;12.32;5.10;;;13.70;99.90;;;;;;4995008;28;20056;-79
2023/05/10 09:59:26;;;;;;;11.68;4.80;;;13.80;99.90;;;;;;5014744;28;20045;-79
2023/05/10 10:01:55;;;;;;;12.10;5.30;;;14.70;99.90;;;;;;5031338;28;20072;-81
2023/05/10 10:04:21;;;;;;;12.23;5.97;;;14.80;99.90;;;;;;4994207;28;20152;-81
2023/05/10 10:06:57;;;;;;;13.15;8.52;;;14.80;99.90;;;;;;4995081;28;20084;-80
2023/05/10 10:09:24;;;;;;;12.75;6.30;;;14.40;99.90;;;;;;4995317;28;20053;-80
2023/05/10 10:11:50;;;;;;;11.60;4.90;;;14.60;99.90;;;;;;4994262;28;20046;-81
2023/05/10 10:14:21;;;;;;;11.07;6.15;;;14.90;99.90;;;;;;4994974;28;20041;-83
2023/05/10 10:16:47;;;;;;;12.18;7.43;;;14.90;99.90;;;;;;5012463;28;20045;-80
2023/05/10 10:19:13;;;;;;;10.88;5.53;;;15.00;99.90;;;;;;4992952;28;20052;-81
2023/05/10 10:21:39;;;;;;;13.18;8.45;;;14.80;99.90;;;;;;5013437;28;20366;-81
2023/05/10 10:24:05;;;;;;;11.00;5.80;;;15.70;99.90;;;;;;5008788;28;20038;-82
2023/05/10 10:26:33;;;;;;;18.60;11.40;;;14.40;99.90;;;;;;5014793;28;20042;-82
2023/05/10 10:29:23;;;;;;;16.50;8.43;;;14.30;99.90;;;;;;4997263;28;20038;-82
2023/05/10 10:32:29;;;;;;;18.88;12.55;;;14.20;99.90;;;;;;4995175;28;20042;-82
2023/05/10 10:34:59;;;;;;;19.00;13.20;;;14.30;99.90;;;;;;4995270;28;20046;-83
2023/05/10 10:37:45;;;;;;;14.00;7.70;;;14.40;99.90;;;;;;5012738;28;20049;-82
2023/05/10 10:40:30;;;;;;;12.43;7.30;;;14.40;99.90;;;;;;5013064;28;20042;-85
2023/05/10 10:42:56;;;;;;;12.25;5.85;;;14.50;99.90;;;;;;4994851;28;20097;-83
2023/05/10 10:45:23;;;;;;;12.70;5.82;;;14.70;99.90;;;;;;5010271;28;20038;-82
2023/05/10 10:48:13;;;;;;;16.20;10.95;;;14.80;99.90;;;;;;5012809;28;20091;-84
2023/05/10 10:50:48;;;;;;;14.23;8.50;;;14.80;99.90;;;;;;5012124;28;20605;-81
2023/05/10 10:53:13;;;;;;;15.40;10.20;;;15.10;99.90;;;;;;4997741;28;20049;-83
2023/05/10 10:55:48;;;;;;;14.70;10.57;;;15.10;99.90;;;;;;4999541;28;20109;-82
2023/05/10 10:58:35;;;;;;;13.93;8.30;;;15.30;99.90;;;;;;5016501;28;20125;-82
2023/05/10 11:01:18;;;;;;;14.00;6.43;;;15.30;99.90;;;;;;4997928;28;20082;-82
2023/05/10 11:03:58;;;;;;;11.95;6.57;;;14.70;99.90;;;;;;5016360;28;20108;-82
2023/05/10 11:06:34;;;;;;;11.77;6.25;;;15.00;99.90;;;;;;5015469;28;20065;-82
2023/05/10 11:09:08;;;;;;;13.60;8.65;;;15.00;99.90;;;;;;4998427;28;20049;-83
2023/05/10 11:11:35;;;;;;;12.52;6.25;;;14.90;99.90;;;;;;4998459;28;20574;-82
2023/05/10 11:14:06;;;;;;;14.48;8.10;;;14.80;99.90;;;;;;5021266;28;20500;-83
2023/05/10 11:16:44;;;;;;;11.57;5.88;;;14.60;99.90;;;;;;5018177;28;20045;-82
2023/05/10 11:19:15;;;;;;;12.60;5.80;;;15.20;99.90;;;;;;5001162;28;20073;-82
2023/05/10 11:22:05;;;;;;;15.05;7.43;;;15.30;99.90;;;;;;5015866;28;20038;-83
2023/05/10 11:24:31;;;;;;;13.70;6.85;;;14.50;99.90;;;;;;4998424;28;20050;-82
2023/05/10 11:26:57;;;;;;;14.90;7.53;;;15.60;99.90;;;;;;4998718;28;20134;-81
2023/05/10 11:29:22;;;;;;;14.77;8.77;;;14.60;99.90;;;;;;5012522;28;20049;-83
2023/05/10 11:31:49;;;;;;;14.63;7.28;;;14.70;99.90;;;;;;5017563;28;20037;-81
2023/05/10 11:34:38;;;;;;;13.18;7.85;;;14.80;99.90;;;;;;5000649;28;20050;-81
2023/05/10 11:37:03;;;;;;;14.35;9.20;;;14.90;99.90;;;;;;5015820;28;20050;-83
2023/05/10 11:39:31;;;;;;;15.65;6.85;;;15.00;99.90;;;;;;5015415;28;20045;-83
2023/05/10 11:41:57;;;;;;;11.93;6.32;;;15.50;99.90;;;;;;4996567;28;20366;-82
2023/05/10 11:44:23;;;;;;;12.52;6.47;;;15.10;99.90;;;;;;5014335;28;20489;-82
2023/05/10 11:46:49;;;;;;;11.85;6.28;;;15.10;99.90;;;;;;5014396;28;20117;-82
2023/05/10 11:49:14;;;;;;;13.18;6.75;;;15.30;99.90;;;;;;5013574;28;20045;-81
2023/05/10 11:51:42;;;;;;;12.05;6.07;;;15.10;99.90;;;;;;5014699;28;20073;-81
2023/05/10 11:54:09;;;;;;;13.02;7.53;;;15.10;99.90;;;;;;4997034;28;20092;-81
2023/05/10 11:56:37;;;;;;;14.35;6.57;;;14.90;99.90;;;;;;4996734;28;20050;-81
2023/05/10 11:59:03;;;;;;;11.35;5.45;;;15.60;99.90;;;;;;5014837;28;20113;-81
2023/05/10 12:01:30;;;;;;;12.13;5.75;;;15.30;99.90;;;;;;4999094;28;20068;-82
2023/05/10 12:04:00;;;;;;;12.45;7.15;;;15.00;99.90;;;;;;5013244;28;20108;-82
2023/05/10 12:06:35;;;;;;;12.95;7.70;;;15.00;99.90;;;;;;5023111;28;20111;-82
2023/05/10 12:09:06;;;;;;;12.60;6.28;;;15.40;99.90;;;;;;5023575;28;20129;-82
2023/05/10 12:11:32;;;;;;;13.30;5.82;;;15.00;99.90;;;;;;4996806;28;20385;-83
2023/05/10 12:13:57;;;;;;;15.43;9.98;;;15.10;99.90;;;;;;4997369;28;20054;-82
2023/05/10 12:16:25;;;;;;;16.05;11.63;;;15.20;99.90;;;;;;5014217;28;20080;-82
2023/05/10 12:18:52;;;;;;;12.23;6.03;;;15.40;99.90;;;;;;4997405;28;20046;-82
2023/05/10 12:21:20;;;;;;;10.90;5.45;;;15.50;99.90;;;;;;5014892;28;20042;-82
2023/05/10 12:23:48;;;;;;;12.82;6.55;;;15.60;99.90;;;;;;4996602;28;20041;-83
2023/05/10 12:26:14;;;;;;;11.55;6.13;;;15.60;99.90;;;;;;5014538;28;20049;-83
2023/05/10 12:28:40;;;;;;;13.45;7.43;;;15.50;99.90;;;;;;5014252;28;20034;-82
2023/05/10 12:31:06;;;;;;;12.77;6.68;;;15.60;99.90;;;;;;4996142;28;20397;-82
2023/05/10 12:33:38;;;;;;;12.32;6.38;;;15.70;99.90;;;;;;4997298;28;20072;-81
2023/05/10 12:36:05;;;;;;;12.10;6.20;;;15.40;99.90;;;;;;5014562;28;20490;-81
2023/05/10 12:38:36;;;;;;;13.32;5.95;;;15.40;99.90;;;;;;5013894;28;20041;-81
2023/05/10 12:41:04;;;;;;;10.88;5.97;;;15.30;99.90;;;;;;4996447;28;20053;-82
2023/05/10 12:43:31;;;;;;;11.05;5.75;;;15.20;99.90;;;;;;5013762;28;20081;-83
2023/05/10 12:45:57;;;;;;;13.30;6.10;;;15.00;99.90;;;;;;4996032;28;20052;-82